Surface Preassure
0:00 UTC
12:00 UTC (Click for larger versions)
Andrewsfield Outlook

Current time:


  05:37:09am (GMT)      05:37:09am (UTC)


Headline: Occasionally heavy showers today, some warm sunny intervals later.

Today: Cloudy with heavy, locally thundery showers moving north this morning, these tending to become lighter over time. Some warm sunny spells developing by the afternoon, but with scattered and again, locally thundery showers in places. Light winds. Maximum Temperature 22C.

Tonight: Some warm sunshine through the evening as showers ease, then dry and mostly clear overnight. A cooler night to come than the last. Some mist or fog patches by morning. Minimum Temperature 7C.

Tuesday: Dry with lengthy sunny spells and light winds. Very warm, especially inland. Feeling fresher along eastern coasts though with a gentle onshore breeze. Cloudier in the far west by evening. Maximum Temperature 24C.

Outlook for Wednesday to Friday: Fine, bright and warm on Wednesday. Heavy, perhaps thundery showers overnight, then largely sunny and rather warm Thursday. A bright start to Friday. Cloudier later with a risk of rain.

Nearby METAR/TAF

Stansted (EGSS)


Current conditions: VFR

METAR: EGSS 160520Z AUTO 08007KT 9999 NCD 13/11 Q1010

TAF: TAF EGSS 160455Z 1606/1712 10006KT 9999 FEW048 BECMG 1606/1609 22010KT TEMPO 1606/1610 8000 BKN008 PROB30 TEMPO 1611/1616 23015G25KT 7000 SHRA PROB40 1703/1706 6000

Southend (EGMC)


Current conditions: VFR

METAR: EGMC 160520Z 00000KT CAVOK 11/11 Q1011

TAF: TAF EGMC 160456Z 1606/1615 23003KT 9999 FEW045 TEMPO 1606/1610 8000 BKN009 PROB30 TEMPO 1610/1615 7000 SHRA PROB30 TEMPO 1612/1615 23015G25KT

RAF Wattisham (EGUW)


Current conditions: VFR

METAR: EGUW 160450Z AUTO 11002KT 9999 FEW140/// 11/09 Q1010

TAF: